sensor_id;sensor_type;location;lat;lon;timestamp;temperature;humidity
67502;SHT30;54349;52.528;19.760;2023-06-24T00:00:27;20.07;54.08
67502;SHT30;54349;52.528;19.760;2023-06-24T00:03:17;20.06;53.96
67502;SHT30;54349;52.528;19.760;2023-06-24T00:05:46;20.06;53.89
67502;SHT30;54349;52.528;19.760;2023-06-24T00:08:17;20.05;53.81
67502;SHT30;54349;52.528;19.760;2023-06-24T00:10:47;20.05;53.77
67502;SHT30;54349;52.528;19.760;2023-06-24T00:13:16;20.05;53.63
67502;SHT30;54349;52.528;19.760;2023-06-24T00:15:45;20.07;53.61
67502;SHT30;54349;52.528;19.760;2023-06-24T00:18:13;20.07;53.51
67502;SHT30;54349;52.528;19.760;2023-06-24T00:20:41;20.07;53.38
67502;SHT30;54349;52.528;19.760;2023-06-24T00:23:12;20.06;53.36
67502;SHT30;54349;52.528;19.760;2023-06-24T00:25:44;20.08;53.33
67502;SHT30;54349;52.528;19.760;2023-06-24T00:28:12;20.07;53.20
67502;SHT30;54349;52.528;19.760;2023-06-24T00:30:40;20.06;53.24
67502;SHT30;54349;52.528;19.760;2023-06-24T00:33:09;20.03;53.22
67502;SHT30;54349;52.528;19.760;2023-06-24T00:35:41;20.03;53.21
67502;SHT30;54349;52.528;19.760;2023-06-24T00:38:11;20.02;53.18
67502;SHT30;54349;52.528;19.760;2023-06-24T00:40:39;20.02;53.16
67502;SHT30;54349;52.528;19.760;2023-06-24T00:43:08;20.01;53.17
67502;SHT30;54349;52.528;19.760;2023-06-24T00:45:37;20.00;53.17
67502;SHT30;54349;52.528;19.760;2023-06-24T00:48:06;20.01;53.19
67502;SHT30;54349;52.528;19.760;2023-06-24T00:50:34;20.01;53.15
67502;SHT30;54349;52.528;19.760;2023-06-24T00:53:05;20.01;53.14
67502;SHT30;54349;52.528;19.760;2023-06-24T00:55:33;20.02;53.09
67502;SHT30;54349;52.528;19.760;2023-06-24T00:58:01;20.03;53.01
67502;SHT30;54349;52.528;19.760;2023-06-24T01:00:29;20.05;52.92
67502;SHT30;54349;52.528;19.760;2023-06-24T01:03:00;20.07;52.89
67502;SHT30;54349;52.528;19.760;2023-06-24T01:05:29;20.06;52.89
67502;SHT30;54349;52.528;19.760;2023-06-24T01:08:03;20.05;52.89
67502;SHT30;54349;52.528;19.760;2023-06-24T01:10:32;20.04;52.90
67502;SHT30;54349;52.528;19.760;2023-06-24T01:13:01;20.04;52.83
67502;SHT30;54349;52.528;19.760;2023-06-24T01:15:30;20.03;52.83
67502;SHT30;54349;52.528;19.760;2023-06-24T01:18:00;20.04;52.88
67502;SHT30;54349;52.528;19.760;2023-06-24T01:21:10;20.05;52.77
67502;SHT30;54349;52.528;19.760;2023-06-24T01:26:42;20.06;52.72
67502;SHT30;54349;52.528;19.760;2023-06-24T01:32:19;20.03;52.78
67502;SHT30;54349;52.528;19.760;2023-06-24T01:35:07;20.04;52.90
67502;SHT30;54349;52.528;19.760;2023-06-24T01:37:42;19.96;52.61
67502;SHT30;54349;52.528;19.760;2023-06-24T01:42:56;19.71;52.70
67502;SHT30;54349;52.528;19.760;2023-06-24T01:45:32;19.89;53.88
67502;SHT30;54349;52.528;19.760;2023-06-24T01:48:15;20.46;53.30
67502;SHT30;54349;52.528;19.760;2023-06-24T01:50:59;20.99;52.63
67502;SHT30;54349;52.528;19.760;2023-06-24T01:53:44;21.28;52.42
67502;SHT30;54349;52.528;19.760;2023-06-24T01:56:19;20.97;52.77
67502;SHT30;54349;52.528;19.760;2023-06-24T01:58:51;20.70;53.37
67502;SHT30;54349;52.528;19.760;2023-06-24T02:01:21;20.48;53.03
67502;SHT30;54349;52.528;19.760;2023-06-24T02:03:51;20.27;52.73
67502;SHT30;54349;52.528;19.760;2023-06-24T02:06:21;20.08;52.75
67502;SHT30;54349;52.528;19.760;2023-06-24T02:08:51;19.92;52.89
67502;SHT30;54349;52.528;19.760;2023-06-24T02:11:22;19.82;53.58
67502;SHT30;54349;52.528;19.760;2023-06-24T02:13:52;20.15;54.01
67502;SHT30;54349;52.528;19.760;2023-06-24T02:16:22;20.62;53.41
67502;SHT30;54349;52.528;19.760;2023-06-24T02:18:53;21.04;52.92
67502;SHT30;54349;52.528;19.760;2023-06-24T02:21:23;21.29;52.66
67502;SHT30;54349;52.528;19.760;2023-06-24T02:23:52;21.04;52.81
67502;SHT30;54349;52.528;19.760;2023-06-24T02:26:22;20.72;53.50
67502;SHT30;54349;52.528;19.760;2023-06-24T02:28:53;20.47;53.38
67502;SHT30;54349;52.528;19.760;2023-06-24T02:31:24;20.25;52.92
67502;SHT30;54349;52.528;19.760;2023-06-24T02:33:52;20.04;52.91
67502;SHT30;54349;52.528;19.760;2023-06-24T02:36:20;19.87;53.48
67502;SHT30;54349;52.528;19.760;2023-06-24T02:38:49;20.11;54.11
67502;SHT30;54349;52.528;19.760;2023-06-24T02:41:17;20.55;53.60
67502;SHT30;54349;52.528;19.760;2023-06-24T02:43:45;20.94;53.12
67502;SHT30;54349;52.528;19.760;2023-06-24T02:46:14;21.24;52.88
67502;SHT30;54349;52.528;19.760;2023-06-24T02:48:44;21.09;52.74
67502;SHT30;54349;52.528;19.760;2023-06-24T02:51:13;20.76;53.41
67502;SHT30;54349;52.528;19.760;2023-06-24T02:53:42;20.50;53.55
67502;SHT30;54349;52.528;19.760;2023-06-24T02:56:12;20.27;53.12
67502;SHT30;54349;52.528;19.760;2023-06-24T02:58:43;20.04;52.99
67502;SHT30;54349;52.528;19.760;2023-06-24T03:01:20;19.84;53.54
67502;SHT30;54349;52.528;19.760;2023-06-24T03:03:54;20.07;54.24
67502;SHT30;54349;52.528;19.760;2023-06-24T03:06:24;20.49;53.73
67502;SHT30;54349;52.528;19.760;2023-06-24T03:08:58;20.90;53.27
67502;SHT30;54349;52.528;19.760;2023-06-24T03:11:27;21.19;53.02
67502;SHT30;54349;52.528;19.760;2023-06-24T03:13:59;21.04;52.63
67502;SHT30;54349;52.528;19.760;2023-06-24T03:16:36;20.66;52.87
67502;SHT30;54349;52.528;19.760;2023-06-24T03:19:11;20.35;53.08
67502;SHT30;54349;52.528;19.760;2023-06-24T03:21:39;20.12;52.83
67502;SHT30;54349;52.528;19.760;2023-06-24T03:24:11;20.06;53.89
67502;SHT30;54349;52.528;19.760;2023-06-24T03:26:40;20.39;53.77
67502;SHT30;54349;52.528;19.760;2023-06-24T03:29:10;20.78;53.29
67502;SHT30;54349;52.528;19.760;2023-06-24T03:31:44;21.11;52.93
67502;SHT30;54349;52.528;19.760;2023-06-24T03:34:17;21.26;52.69
67502;SHT30;54349;52.528;19.760;2023-06-24T03:36:46;20.93;52.41
67502;SHT30;54349;52.528;19.760;2023-06-24T03:39:15;20.58;52.84
67502;SHT30;54349;52.528;19.760;2023-06-24T03:41:43;20.29;52.54
67502;SHT30;54349;52.528;19.760;2023-06-24T03:44:12;20.04;52.95
67502;SHT30;54349;52.528;19.760;2023-06-24T03:46:41;20.17;53.78
67502;SHT30;54349;52.528;19.760;2023-06-24T03:49:10;20.56;53.33
67502;SHT30;54349;52.528;19.760;2023-06-24T03:51:39;20.92;52.91
67502;SHT30;54349;52.528;19.760;2023-06-24T03:54:09;21.22;52.56
67502;SHT30;54349;52.528;19.760;2023-06-24T03:56:37;21.31;52.91
67502;SHT30;54349;52.528;19.760;2023-06-24T03:59:05;21.00;53.14
67502;SHT30;54349;52.528;19.760;2023-06-24T04:01:33;20.70;53.51
67502;SHT30;54349;52.528;19.760;2023-06-24T04:04:02;20.42;53.36
67502;SHT30;54349;52.528;19.760;2023-06-24T04:06:31;20.16;52.87
67502;SHT30;54349;52.528;19.760;2023-06-24T04:08:59;19.96;53.45
67502;SHT30;54349;52.528;19.760;2023-06-24T04:11:27;20.19;53.96
67502;SHT30;54349;52.528;19.760;2023-06-24T04:13:55;20.57;53.46
67502;SHT30;54349;52.528;19.760;2023-06-24T04:16:24;20.92;53.01
67502;SHT30;54349;52.528;19.760;2023-06-24T04:18:54;21.19;52.84
67502;SHT30;54349;52.528;19.760;2023-06-24T04:21:22;21.03;52.52
67502;SHT30;54349;52.528;19.760;2023-06-24T04:23:51;20.66;52.70
67502;SHT30;54349;52.528;19.760;2023-06-24T04:26:19;20.35;52.82
67502;SHT30;54349;52.528;19.760;2023-06-24T04:28:48;20.08;52.64
67502;SHT30;54349;52.528;19.760;2023-06-24T04:31:17;19.88;53.45
67502;SHT30;54349;52.528;19.760;2023-06-24T04:33:45;20.13;53.83
67502;SHT30;54349;52.528;19.760;2023-06-24T04:36:13;20.51;53.33
67502;SHT30;54349;52.528;19.760;2023-06-24T04:38:42;20.86;52.88
67502;SHT30;54349;52.528;19.760;2023-06-24T04:41:10;21.13;52.56
67502;SHT30;54349;52.528;19.760;2023-06-24T04:43:38;21.18;52.57
67502;SHT30;54349;52.528;19.760;2023-06-24T04:46:06;20.83;52.41
67502;SHT30;54349;52.528;19.760;2023-06-24T04:48:35;20.49;52.80
67502;SHT30;54349;52.528;19.760;2023-06-24T04:51:04;20.18;52.55
67502;SHT30;54349;52.528;19.760;2023-06-24T04:53:32;20.12;53.61
67502;SHT30;54349;52.528;19.760;2023-06-24T04:56:02;20.42;53.47
67502;SHT30;54349;52.528;19.760;2023-06-24T04:58:30;20.80;52.93
67502;SHT30;54349;52.528;19.760;2023-06-24T05:00:58;21.10;52.49
67502;SHT30;54349;52.528;19.760;2023-06-24T05:03:26;21.25;52.61
67502;SHT30;54349;52.528;19.760;2023-06-24T05:05:55;20.94;52.39
67502;SHT30;54349;52.528;19.760;2023-06-24T05:08:23;20.58;52.73
67502;SHT30;54349;52.528;19.760;2023-06-24T05:10:51;20.28;52.55
67502;SHT30;54349;52.528;19.760;2023-06-24T05:13:20;20.10;53.44
67502;SHT30;54349;52.528;19.760;2023-06-24T05:15:48;20.37;53.55
67502;SHT30;54349;52.528;19.760;2023-06-24T05:18:16;20.71;53.05
67502;SHT30;54349;52.528;19.760;2023-06-24T05:20:44;21.01;52.64
67502;SHT30;54349;52.528;19.760;2023-06-24T05:23:12;21.24;52.73
67502;SHT30;54349;52.528;19.760;2023-06-24T05:25:40;21.02;52.56
67502;SHT30;54349;52.528;19.760;2023-06-24T05:28:09;20.65;52.71
67502;SHT30;54349;52.528;19.760;2023-06-24T05:30:37;20.34;52.63
67502;SHT30;54349;52.528;19.760;2023-06-24T05:33:05;20.06;52.83
67502;SHT30;54349;52.528;19.760;2023-06-24T05:35:36;20.03;53.79
67502;SHT30;54349;52.528;19.760;2023-06-24T05:38:08;20.38;53.55
67502;SHT30;54349;52.528;19.760;2023-06-24T05:40:36;20.75;53.00
67502;SHT30;54349;52.528;19.760;2023-06-24T05:43:05;21.07;52.55
67502;SHT30;54349;52.528;19.760;2023-06-24T05:45:34;21.29;52.71
67502;SHT30;54349;52.528;19.760;2023-06-24T05:48:03;21.06;52.58
67502;SHT30;54349;52.528;19.760;2023-06-24T05:50:31;20.72;52.84
67502;SHT30;54349;52.528;19.760;2023-06-24T05:52:59;20.42;52.85
67502;SHT30;54349;52.528;19.760;2023-06-24T05:55:28;20.15;52.84
67502;SHT30;54349;52.528;19.760;2023-06-24T05:57:56;20.02;53.77
67502;SHT30;54349;52.528;19.760;2023-06-24T06:00:25;20.32;53.68
67502;SHT30;54349;52.528;19.760;2023-06-24T06:02:53;20.68;53.29
67502;SHT30;54349;52.528;19.760;2023-06-24T06:05:22;21.00;52.77
67502;SHT30;54349;52.528;19.760;2023-06-24T06:07:50;21.18;53.32
67502;SHT30;54349;52.528;19.760;2023-06-24T06:10:20;20.91;53.19
67502;SHT30;54349;52.528;19.760;2023-06-24T06:12:49;20.59;53.48
67502;SHT30;54349;52.528;19.760;2023-06-24T06:15:18;20.31;53.23
67502;SHT30;54349;52.528;19.760;2023-06-24T06:17:46;20.05;53.36
67502;SHT30;54349;52.528;19.760;2023-06-24T06:20:15;19.90;54.14
67502;SHT30;54349;52.528;19.760;2023-06-24T06:22:43;20.17;54.28
67502;SHT30;54349;52.528;19.760;2023-06-24T06:25:12;20.55;53.76
67502;SHT30;54349;52.528;19.760;2023-06-24T06:27:40;20.89;53.35
67502;SHT30;54349;52.528;19.760;2023-06-24T06:30:09;21.11;52.94
67502;SHT30;54349;52.528;19.760;2023-06-24T06:32:37;20.91;53.13
67502;SHT30;54349;52.528;19.760;2023-06-24T06:35:06;20.58;53.60
67502;SHT30;54349;52.528;19.760;2023-06-24T06:37:35;20.28;53.54
67502;SHT30;54349;52.528;19.760;2023-06-24T06:40:04;20.05;53.70
67502;SHT30;54349;52.528;19.760;2023-06-24T06:42:33;20.11;54.67
67502;SHT30;54349;52.528;19.760;2023-06-24T06:45:01;20.48;54.22
67502;SHT30;54349;52.528;19.760;2023-06-24T06:47:29;20.84;53.60
67502;SHT30;54349;52.528;19.760;2023-06-24T06:49:57;21.14;53.23
67502;SHT30;54349;52.528;19.760;2023-06-24T06:52:26;21.16;53.72
67502;SHT30;54349;52.528;19.760;2023-06-24T06:54:57;20.82;53.51
67502;SHT30;54349;52.528;19.760;2023-06-24T06:57:26;20.50;53.73
67502;SHT30;54349;52.528;19.760;2023-06-24T06:59:56;20.25;53.46
67502;SHT30;54349;52.528;19.760;2023-06-24T07:02:26;20.05;54.23
67502;SHT30;54349;52.528;19.760;2023-06-24T07:04:55;20.25;54.71
67502;SHT30;54349;52.528;19.760;2023-06-24T07:07:24;20.63;54.21
67502;SHT30;54349;52.528;19.760;2023-06-24T07:09:52;20.97;53.58
67502;SHT30;54349;52.528;19.760;2023-06-24T07:12:22;21.24;53.59
67502;SHT30;54349;52.528;19.760;2023-06-24T07:14:51;21.11;53.75
67502;SHT30;54349;52.528;19.760;2023-06-24T07:17:19;20.77;53.77
67502;SHT30;54349;52.528;19.760;2023-06-24T07:19:48;20.47;53.63
67502;SHT30;54349;52.528;19.760;2023-06-24T07:22:17;20.20;53.57
67502;SHT30;54349;52.528;19.760;2023-06-24T07:24:45;19.97;53.82
67502;SHT30;54349;52.528;19.760;2023-06-24T07:27:14;19.99;54.77
67502;SHT30;54349;52.528;19.760;2023-06-24T07:29:42;20.36;54.53
67502;SHT30;54349;52.528;19.760;2023-06-24T07:32:11;20.73;53.91
67502;SHT30;54349;52.528;19.760;2023-06-24T07:34:39;21.04;54.01
67502;SHT30;54349;52.528;19.760;2023-06-24T07:37:07;21.28;54.46
67502;SHT30;54349;52.528;19.760;2023-06-24T07:39:49;21.06;53.89
67502;SHT30;54349;52.528;19.760;2023-06-24T07:42:18;20.72;54.13
67502;SHT30;54349;52.528;19.760;2023-06-24T07:44:47;20.43;53.85
67502;SHT30;54349;52.528;19.760;2023-06-24T07:47:17;20.17;53.89
67502;SHT30;54349;52.528;19.760;2023-06-24T07:49:47;19.93;54.30
67502;SHT30;54349;52.528;19.760;2023-06-24T07:52:17;19.98;55.63
67502;SHT30;54349;52.528;19.760;2023-06-24T07:54:48;20.36;55.32
67502;SHT30;54349;52.528;19.760;2023-06-24T07:57:21;20.74;54.36
67502;SHT30;54349;52.528;19.760;2023-06-24T07:59:49;21.04;53.88
67502;SHT30;54349;52.528;19.760;2023-06-24T08:02:17;21.08;54.40
67502;SHT30;54349;52.528;19.760;2023-06-24T08:04:45;20.76;53.98
67502;SHT30;54349;52.528;19.760;2023-06-24T08:07:14;20.46;54.23
67502;SHT30;54349;52.528;19.760;2023-06-24T08:09:43;20.20;53.87
67502;SHT30;54349;52.528;19.760;2023-06-24T08:12:11;19.98;54.13
67502;SHT30;54349;52.528;19.760;2023-06-24T08:14:39;20.03;55.03
67502;SHT30;54349;52.528;19.760;2023-06-24T08:17:08;20.38;54.59
67502;SHT30;54349;52.528;19.760;2023-06-24T08:19:36;20.74;54.12
67502;SHT30;54349;52.528;19.760;2023-06-24T08:22:05;21.06;53.75
67502;SHT30;54349;52.528;19.760;2023-06-24T08:24:33;21.14;54.34
67502;SHT30;54349;52.528;19.760;2023-06-24T08:27:02;20.84;53.97
67502;SHT30;54349;52.528;19.760;2023-06-24T08:29:31;20.52;54.11
67502;SHT30;54349;52.528;19.760;2023-06-24T08:31:59;20.25;53.84
67502;SHT30;54349;52.528;19.760;2023-06-24T08:34:28;20.00;54.02
67502;SHT30;54349;52.528;19.760;2023-06-24T08:36:56;19.95;55.26
67502;SHT30;54349;52.528;19.760;2023-06-24T08:39:24;20.28;55.05
67502;SHT30;54349;52.528;19.760;2023-06-24T08:41:53;20.67;54.39
67502;SHT30;54349;52.528;19.760;2023-06-24T08:44:21;21.00;53.97
67502;SHT30;54349;52.528;19.760;2023-06-24T08:46:50;21.19;54.43
67502;SHT30;54349;52.528;19.760;2023-06-24T08:49:25;20.94;54.13
67502;SHT30;54349;52.528;19.760;2023-06-24T08:52:02;20.61;54.50
67502;SHT30;54349;52.528;19.760;2023-06-24T08:54:34;20.34;54.21
67502;SHT30;54349;52.528;19.760;2023-06-24T08:57:04;20.11;54.17
67502;SHT30;54349;52.528;19.760;2023-06-24T08:59:36;19.92;54.63
67502;SHT30;54349;52.528;19.760;2023-06-24T09:02:05;20.12;55.38
67502;SHT30;54349;52.528;19.760;2023-06-24T09:04:34;20.50;54.88
67502;SHT30;54349;52.528;19.760;2023-06-24T09:07:03;20.85;54.53
67502;SHT30;54349;52.528;19.760;2023-06-24T09:09:41;21.15;54.59
67502;SHT30;54349;52.528;19.760;2023-06-24T09:12:13;21.08;54.71
67502;SHT30;54349;52.528;19.760;2023-06-24T09:14:47;20.76;54.69
67502;SHT30;54349;52.528;19.760;2023-06-24T09:17:18;20.46;54.59
67502;SHT30;54349;52.528;19.760;2023-06-24T09:19:50;20.22;54.39
67502;SHT30;54349;52.528;19.760;2023-06-24T09:22:19;20.02;54.48
67502;SHT30;54349;52.528;19.760;2023-06-24T09:24:48;19.83;54.77
67502;SHT30;54349;52.528;19.760;2023-06-24T09:27:18;19.98;55.74
67502;SHT30;54349;52.528;19.760;2023-06-24T09:29:51;20.38;55.24
67502;SHT30;54349;52.528;19.760;2023-06-24T09:32:21;20.75;54.70
67502;SHT30;54349;52.528;19.760;2023-06-24T09:34:49;21.07;54.24
67502;SHT30;54349;52.528;19.760;2023-06-24T09:37:21;21.24;54.92
67502;SHT30;54349;52.528;19.760;2023-06-24T09:39:55;20.98;54.39
67502;SHT30;54349;52.528;19.760;2023-06-24T09:42:24;20.68;54.66
67502;SHT30;54349;52.528;19.760;2023-06-24T09:44:55;20.40;54.25
67502;SHT30;54349;52.528;19.760;2023-06-24T09:47:24;20.17;54.15
67502;SHT30;54349;52.528;19.760;2023-06-24T09:49:56;19.94;54.18
67502;SHT30;54349;52.528;19.760;2023-06-24T09:52:25;19.93;55.34
67502;SHT30;54349;52.528;19.760;2023-06-24T09:54:55;20.29;55.09
67502;SHT30;54349;52.528;19.760;2023-06-24T09:57:28;20.67;54.48
67502;SHT30;54349;52.528;19.760;2023-06-24T09:59:59;21.01;53.97
67502;SHT30;54349;52.528;19.760;2023-06-24T10:02:29;21.17;54.62
67502;SHT30;54349;52.528;19.760;2023-06-24T10:05:00;20.90;54.12
67502;SHT30;54349;52.528;19.760;2023-06-24T10:07:29;20.58;54.42
67502;SHT30;54349;52.528;19.760;2023-06-24T10:10:01;20.33;53.95
67502;SHT30;54349;52.528;19.760;2023-06-24T10:12:31;20.09;53.90
67502;SHT30;54349;52.528;19.760;2023-06-24T10:14:59;20.02;54.85
67502;SHT30;54349;52.528;19.760;2023-06-24T10:17:29;20.37;54.63
67502;SHT30;54349;52.528;19.760;2023-06-24T10:19:59;20.73;54.04
67502;SHT30;54349;52.528;19.760;2023-06-24T10:22:32;21.07;53.46
67502;SHT30;54349;52.528;19.760;2023-06-24T10:25:02;21.27;54.14
67502;SHT30;54349;52.528;19.760;2023-06-24T10:27:39;21.01;54.00
67502;SHT30;54349;52.528;19.760;2023-06-24T10:30:16;20.69;54.09
67502;SHT30;54349;52.528;19.760;2023-06-24T10:32:55;20.37;53.71
67502;SHT30;54349;52.528;19.760;2023-06-24T10:35:24;20.12;53.86
67502;SHT30;54349;52.528;19.760;2023-06-24T10:38:00;20.02;54.71
67502;SHT30;54349;52.528;19.760;2023-06-24T10:45:55;21.14;53.28
67502;SHT30;54349;52.528;19.760;2023-06-24T10:48:26;21.39;53.92
67502;SHT30;54349;52.528;19.760;2023-06-24T10:50:54;21.25;54.29
67502;SHT30;54349;52.528;19.760;2023-06-24T10:53:22;20.94;54.31
67502;SHT30;54349;52.528;19.760;2023-06-24T10:55:51;20.68;54.28
67502;SHT30;54349;52.528;19.760;2023-06-24T10:58:20;20.43;54.13
67502;SHT30;54349;52.528;19.760;2023-06-24T11:00:48;20.21;54.15
67502;SHT30;54349;52.528;19.760;2023-06-24T11:03:17;20.01;54.04
67502;SHT30;54349;52.528;19.760;2023-06-24T11:05:48;19.91;54.83
67502;SHT30;54349;52.528;19.760;2023-06-24T11:08:17;20.23;55.14
67502;SHT30;54349;52.528;19.760;2023-06-24T11:10:46;20.63;54.74
67502;SHT30;54349;52.528;19.760;2023-06-24T11:13:15;20.98;54.00
67502;SHT30;54349;52.528;19.760;2023-06-24T11:15:48;21.28;54.67
67502;SHT30;54349;52.528;19.760;2023-06-24T11:18:17;21.19;55.07
67502;SHT30;54349;52.528;19.760;2023-06-24T11:20:45;20.92;55.05
67502;SHT30;54349;52.528;19.760;2023-06-24T11:23:14;20.69;54.95
67502;SHT30;54349;52.528;19.760;2023-06-24T11:25:43;20.46;54.53
67502;SHT30;54349;52.528;19.760;2023-06-24T11:28:16;20.24;54.52
67502;SHT30;54349;52.528;19.760;2023-06-24T11:30:50;20.05;54.49
67502;SHT30;54349;52.528;19.760;2023-06-24T11:33:27;19.88;54.63
67502;SHT30;54349;52.528;19.760;2023-06-24T11:35:56;19.99;55.69
67502;SHT30;54349;52.528;19.760;2023-06-24T11:38:25;20.42;55.33
67502;SHT30;54349;52.528;19.760;2023-06-24T11:41:00;20.83;54.59
67502;SHT30;54349;52.528;19.760;2023-06-24T11:43:28;21.17;54.01
67502;SHT30;54349;52.528;19.760;2023-06-24T11:45:56;21.41;55.07
67502;SHT30;54349;52.528;19.760;2023-06-24T11:48:28;21.26;54.97
67502;SHT30;54349;52.528;19.760;2023-06-24T11:50:57;20.98;55.03
67502;SHT30;54349;52.528;19.760;2023-06-24T11:53:29;20.74;54.33
67502;SHT30;54349;52.528;19.760;2023-06-24T11:56:08;20.50;54.03
67502;SHT30;54349;52.528;19.760;2023-06-24T11:58:37;20.28;54.10
67502;SHT30;54349;52.528;19.760;2023-06-24T12:01:07;20.08;54.10
67502;SHT30;54349;52.528;19.760;2023-06-24T12:03:40;19.99;54.98
67502;SHT30;54349;52.528;19.760;2023-06-24T12:06:09;20.33;55.08
67502;SHT30;54349;52.528;19.760;2023-06-24T12:08:37;20.75;54.43
67502;SHT30;54349;52.528;19.760;2023-06-24T12:11:18;21.11;53.82
67502;SHT30;54349;52.528;19.760;2023-06-24T12:13:47;21.35;54.80
67502;SHT30;54349;52.528;19.760;2023-06-24T12:16:16;21.22;54.48
67502;SHT30;54349;52.528;19.760;2023-06-24T12:18:44;20.92;54.58
67502;SHT30;54349;52.528;19.760;2023-06-24T12:21:12;20.67;54.36
67502;SHT30;54349;52.528;19.760;2023-06-24T12:23:41;20.43;53.91
67502;SHT30;54349;52.528;19.760;2023-06-24T12:26:10;20.20;53.99
67502;SHT30;54349;52.528;19.760;2023-06-24T12:28:39;20.00;53.90
67502;SHT30;54349;52.528;19.760;2023-06-24T12:31:07;19.89;54.56
67502;SHT30;54349;52.528;19.760;2023-06-24T12:33:36;20.19;54.74
67502;SHT30;54349;52.528;19.760;2023-06-24T12:36:04;20.61;54.12
67502;SHT30;54349;52.528;19.760;2023-06-24T12:38:33;20.99;53.48
67502;SHT30;54349;52.528;19.760;2023-06-24T12:41:01;21.28;54.08
67502;SHT30;54349;52.528;19.760;2023-06-24T12:43:30;21.19;54.24
67502;SHT30;54349;52.528;19.760;2023-06-24T12:45:59;20.91;54.30
67502;SHT30;54349;52.528;19.760;2023-06-24T12:48:28;20.65;54.27
67502;SHT30;54349;52.528;19.760;2023-06-24T12:50:56;20.41;53.81
67502;SHT30;54349;52.528;19.760;2023-06-24T12:53:25;20.19;53.86
67502;SHT30;54349;52.528;19.760;2023-06-24T12:55:53;19.99;53.89
67502;SHT30;54349;52.528;19.760;2023-06-24T12:58:22;19.93;54.63
67502;SHT30;54349;52.528;19.760;2023-06-24T13:00:51;20.29;54.52
67502;SHT30;54349;52.528;19.760;2023-06-24T13:03:20;20.70;53.84
67502;SHT30;54349;52.528;19.760;2023-06-24T13:05:49;21.05;53.27
67502;SHT30;54349;52.528;19.760;2023-06-24T13:08:17;21.29;54.09
67502;SHT30;54349;52.528;19.760;2023-06-24T13:10:46;21.08;53.99
67502;SHT30;54349;52.528;19.760;2023-06-24T13:13:14;20.78;54.20
67502;SHT30;54349;52.528;19.760;2023-06-24T13:15:42;20.52;54.03
67502;SHT30;54349;52.528;19.760;2023-06-24T13:18:10;20.30;53.77
67502;SHT30;54349;52.528;19.760;2023-06-24T13:20:39;20.07;53.97
67502;SHT30;54349;52.528;19.760;2023-06-24T13:23:07;19.88;53.98
67502;SHT30;54349;52.528;19.760;2023-06-24T13:25:36;19.77;54.68
67502;SHT30;54349;52.528;19.760;2023-06-24T13:28:05;20.09;55.19
67502;SHT30;54349;52.528;19.760;2023-06-24T13:30:34;20.51;54.41
67502;SHT30;54349;52.528;19.760;2023-06-24T13:33:02;20.89;53.91
67502;SHT30;54349;52.528;19.760;2023-06-24T13:35:31;21.19;54.55
67502;SHT30;54349;52.528;19.760;2023-06-24T13:37:59;21.09;54.69
67502;SHT30;54349;52.528;19.760;2023-06-24T13:40:28;20.82;54.73
67502;SHT30;54349;52.528;19.760;2023-06-24T13:42:56;20.58;54.62
67502;SHT30;54349;52.528;19.760;2023-06-24T13:45:24;20.35;54.27
67502;SHT30;54349;52.528;19.760;2023-06-24T13:47:52;20.15;54.32
67502;SHT30;54349;52.528;19.760;2023-06-24T13:50:22;20.00;54.62
67502;SHT30;54349;52.528;19.760;2023-06-24T13:52:51;20.20;55.24
67502;SHT30;54349;52.528;19.760;2023-06-24T13:55:19;20.62;54.65
67502;SHT30;54349;52.528;19.760;2023-06-24T13:57:49;21.02;54.15
67502;SHT30;54349;52.528;19.760;2023-06-24T14:00:18;21.34;54.13
67502;SHT30;54349;52.528;19.760;2023-06-24T14:02:46;21.43;55.33
67502;SHT30;54349;52.528;19.760;2023-06-24T14:05:15;21.24;54.89
67502;SHT30;54349;52.528;19.760;2023-06-24T14:07:43;21.01;55.09
67502;SHT30;54349;52.528;19.760;2023-06-24T14:10:11;20.80;54.43
67502;SHT30;54349;52.528;19.760;2023-06-24T14:12:40;20.57;54.29
67502;SHT30;54349;52.528;19.760;2023-06-24T14:15:10;20.35;54.11
67502;SHT30;54349;52.528;19.760;2023-06-24T14:17:39;20.17;54.08
67502;SHT30;54349;52.528;19.760;2023-06-24T14:20:07;19.98;54.22
67502;SHT30;54349;52.528;19.760;2023-06-24T14:22:36;20.06;55.28
67502;SHT30;54349;52.528;19.760;2023-06-24T14:25:05;20.45;55.05
67502;SHT30;54349;52.528;19.760;2023-06-24T14:27:34;20.89;54.49
67502;SHT30;54349;52.528;19.760;2023-06-24T14:30:04;21.26;54.07
67502;SHT30;54349;52.528;19.760;2023-06-24T14:32:34;21.44;56.29
67502;SHT30;54349;52.528;19.760;2023-06-24T14:35:02;21.38;56.31
67502;SHT30;54349;52.528;19.760;2023-06-24T14:37:32;21.26;55.97
67502;SHT30;54349;52.528;19.760;2023-06-24T14:40:00;21.05;55.12
67502;SHT30;54349;52.528;19.760;2023-06-24T14:42:29;20.85;54.71
67502;SHT30;54349;52.528;19.760;2023-06-24T14:44:57;20.65;54.66
67502;SHT30;54349;52.528;19.760;2023-06-24T14:47:25;20.46;54.73
67502;SHT30;54349;52.528;19.760;2023-06-24T14:49:53;20.31;54.63
67502;SHT30;54349;52.528;19.760;2023-06-24T14:52:21;20.16;54.84
67502;SHT30;54349;52.528;19.760;2023-06-24T14:54:50;20.01;54.89
67502;SHT30;54349;52.528;19.760;2023-06-24T14:57:20;19.90;54.92
67502;SHT30;54349;52.528;19.760;2023-06-24T14:59:51;19.89;56.00
67502;SHT30;54349;52.528;19.760;2023-06-24T15:02:19;20.36;56.76
67502;SHT30;54349;52.528;19.760;2023-06-24T15:04:48;20.91;56.13
67502;SHT30;54349;52.528;19.760;2023-06-24T15:07:16;21.39;55.47
67502;SHT30;54349;52.528;19.760;2023-06-24T15:09:44;21.72;56.31
67502;SHT30;54349;52.528;19.760;2023-06-24T15:12:12;21.67;55.29
67502;SHT30;54349;52.528;19.760;2023-06-24T15:14:41;21.45;54.33
67502;SHT30;54349;52.528;19.760;2023-06-24T15:17:10;21.23;53.31
67502;SHT30;54349;52.528;19.760;2023-06-24T15:19:39;20.99;53.80
67502;SHT30;54349;52.528;19.760;2023-06-24T15:22:07;20.83;54.74
67502;SHT30;54349;52.528;19.760;2023-06-24T15:24:36;20.74;54.42
67502;SHT30;54349;52.528;19.760;2023-06-24T15:27:05;20.68;54.08
67502;SHT30;54349;52.528;19.760;2023-06-24T15:29:33;20.62;53.64
67502;SHT30;54349;52.528;19.760;2023-06-24T15:32:02;20.54;53.66
67502;SHT30;54349;52.528;19.760;2023-06-24T15:34:31;20.51;54.56
67502;SHT30;54349;52.528;19.760;2023-06-24T15:36:59;20.51;55.20
67502;SHT30;54349;52.528;19.760;2023-06-24T15:39:27;20.49;54.49
67502;SHT30;54349;52.528;19.760;2023-06-24T15:41:55;20.51;54.44
67502;SHT30;54349;52.528;19.760;2023-06-24T15:44:23;20.53;54.06